West Carrollton, Ohio
Current Conditions -  °F | °C
As of 12:53 PM on Tuesday 21 Oct 2014 (Local Time) from KMGY Reporting Station
Overcast Overcast  
Wind Chill: 11°   Ceiling: 4500
Heat Index: 11°   Visibility: 10mi
Dew Point:   Wind: 14mph
Humidity: 71%   Direction: 350°N
Pressure: 30.04"   Gusts: NA
Location:  39.664°N, 84.2415°W
Report Text: KMGY 211653Z AUTO 35012KT 10SM FEW022 SCT036 OVC045 11/06 A3004 RMK AO2 RAB31E43 SLP170 P0000 T01060056
Loading
Personal Weather Stations






























Interactive Weather Map
Tropical Storm Tracking
New forecast layout! Learn more

10-Day Weather Forecast

Advertisements
Track Severe Weather on mobile